الصفحة الرئيسية
METAR-TAF:

METAR-TAF

مطار :

Midway, الولايات المتحدة

دائرة عرض: 28-13N, خط طول: 177-22W, ارتفاع: 4 متر

مراقبة الطقس الحالي

تاريخ ووقت الإصدار 1ساعة و 12 دقيقة قبل الساعة 13:56UTC
ريح 12 عقدة من الجنوب
درجة الحرارة 18°درجة مئوية
الرطوبة 83%
ضغط 1021 hPa
الرؤية: 16.1 كم
ملبد بالغيوم على ارتفاع 2400 قدم

METAR: PMDY 111356Z AUTO 17012KT 10SM OVC024 18/15 A3015 RMK AO2 WSHFT 1323 SLP209 T01830150

زمن: 05:08 (15:08 UTC)

توقعات

تاريخ ووقت الإصدار 3ساعات و 30 دقيقة قبل الساعة 11:38UTC
التوقعات صالحة من11 الساعة 12 UTC إلى 12 الساعة 12 UTC
ريح 7 عقدة من الجنوب
الرؤية: 10 كم
ملبد بالغيوم على ارتفاع 2000 قدم
من 11 الساعة 2000 UTC
ريح 7 عقدة من الشرق/الشمال الشرقي
الرؤية: 10 كم
غيوم متفرقة على ارتفاع 1500 قدم
غيوم مفككة على ارتفاع 3500 قدم

TAF: PMDY 111138Z 1112/1212 18007KT P6SM OVC020 FM112000 07007KT P6SM SCT015 BKN035

أرصاد الطقس والتوقعات من أكثر من 4000 مطار (تقارير الطقس للمطار METAR والتنبؤ بالطقس بالمطارTAF).

المحطات المتاحة هي النقط الصفراء والحمراء على الخريطة.

حرك المؤشر فوق النقطة لمعرفة اسم المحطة.

ثم انقر لمعرفة أرصاد وتوقعات الطقس.

لتغيير الخارطة: اضغط على الأزرار الخضراء مع رمز الصليب الأسود للتكبير. على الزر الأخضر مع شرطة للتصغير، أو على الأسهم الخضراء للخرائط المجاورة.


METAR-TAF: